PWSweather.com
Personal Weather Stations
Station Observations
ANTHEMNP
Anthem North Parkside, Anthem, AZ 85086

Anthem North ParksideAnthem, AZ 85086

Lat: 33.876464, Lon: -112.13861199999997

Elevation: 1930

Station Type: Davis Vantage Vue with Pro 2 console

http://www.azjerry.com/ANPW/wxindex.php

High Low Average
Temperature 109.9°F43.3°C 83.0°F28.3°C 97.8°F36.6°C
Dew Point 60.0°F15.6°C 50.0°F10.0°C 54.0°F12.2°C
Winds 5.8 mph 9.3 kmh Calm Calm 2.0 mph S3.2 kmh S
Wind Gusts 13.0 mph20.9 kmh -- 6.0 mph9.7 kmh
Humidity 39% 14% 24%
Pressure 29.84 in1010.5 mb 29.84 in1010.5 mb -
Precipitation 0.00 in0.0 mm - -
Hour Temp Dew Point Humidity Winds Wind Gusts Pressure Precip Precip Rate Daily Precip Total
12:00 AM 87.1°F30.6°C 59.0°F15.0°C 38% Calm Calm 1.0 mph1.6 kmh 29.84 in1010.5 mb 0.00 in0.0 mm 0.00 in0.0 mm 0.00 in0.0 mm
12:10 AM 86.7°F30.4°C 58.0°F14.4°C 38% Calm Calm 1.0 mph1.6 kmh 29.84 in1010.5 mb 0.00 in0.0 mm 0.00 in0.0 mm 0.00 in0.0 mm
12:20 AM 86.9°F30.5°C 58.0°F14.4°C 37% 0.1 mph NNE0.2 kmh NNE 2.0 mph3.2 kmh 29.84 in1010.5 mb 0.00 in0.0 mm 0.00 in0.0 mm 0.00 in0.0 mm
12:30 AM 86.6°F30.3°C 57.0°F13.9°C 37% Calm Calm 1.0 mph1.6 kmh 29.84 in1010.5 mb 0.00 in0.0 mm 0.00 in0.0 mm 0.00 in0.0 mm
12:40 AM 86.5°F30.3°C 57.0°F13.9°C 36% 0.5 mph NNE0.8 kmh NNE 3.0 mph4.8 kmh 29.84 in1010.5 mb 0.00 in0.0 mm 0.00 in0.0 mm 0.00 in0.0 mm
12:50 AM 86.6°F30.3°C 57.0°F13.9°C 37% Calm Calm 1.0 mph1.6 kmh 29.84 in1010.5 mb 0.00 in0.0 mm 0.00 in0.0 mm 0.00 in0.0 mm
01:00 AM 85.8°F29.9°C 57.0°F13.9°C 38% Calm Calm 1.0 mph1.6 kmh 29.84 in1010.5 mb 0.00 in0.0 mm 0.00 in0.0 mm 0.00 in0.0 mm
01:10 AM 85.3°F29.6°C 57.0°F13.9°C 38% Calm Calm 1.0 mph1.6 kmh 29.84 in1010.5 mb 0.00 in0.0 mm 0.00 in0.0 mm 0.00 in0.0 mm
01:20 AM 86.5°F30.3°C 57.0°F13.9°C 36% 0.6 mph SE1.0 kmh SE 2.0 mph3.2 kmh 29.84 in1010.5 mb 0.00 in0.0 mm 0.00 in0.0 mm 0.00 in0.0 mm
01:30 AM 86.5°F30.3°C 56.0°F13.3°C 35% 1.6 mph SE2.6 kmh SE 5.0 mph8.0 kmh 29.84 in1010.5 mb 0.00 in0.0 mm 0.00 in0.0 mm 0.00 in0.0 mm
01:40 AM 86.7°F30.4°C 54.0°F12.2°C 33% 1.5 mph SE2.4 kmh SE 3.0 mph4.8 kmh 29.84 in1010.5 mb 0.00 in0.0 mm 0.00 in0.0 mm 0.00 in0.0 mm
01:50 AM 87.2°F30.7°C 55.0°F12.8°C 33% 1.1 mph SE1.8 kmh SE 4.0 mph6.4 kmh 29.84 in1010.5 mb 0.00 in0.0 mm 0.00 in0.0 mm 0.00 in0.0 mm
02:00 AM 87.3°F30.7°C 56.0°F13.3°C 34% 1.0 mph SSE1.6 kmh SSE 3.0 mph4.8 kmh 29.84 in1010.5 mb 0.00 in0.0 mm 0.00 in0.0 mm 0.00 in0.0 mm
02:10 AM 87.2°F30.7°C 56.0°F13.3°C 34% 0.2 mph ESE0.3 kmh ESE 4.0 mph6.4 kmh 29.84 in1010.5 mb 0.00 in0.0 mm 0.00 in0.0 mm 0.00 in0.0 mm
02:20 AM 87.1°F30.6°C 55.0°F12.8°C 34% 1.3 mph SE2.1 kmh SE 4.0 mph6.4 kmh 29.84 in1010.5 mb 0.00 in0.0 mm 0.00 in0.0 mm 0.00 in0.0 mm
02:30 AM 87.1°F30.6°C 55.0°F12.8°C 34% 0.6 mph S1.0 kmh S 4.0 mph6.4 kmh 29.84 in1010.5 mb 0.00 in0.0 mm 0.00 in0.0 mm 0.00 in0.0 mm
02:40 AM 87.5°F30.8°C 56.0°F13.3°C 34% 1.1 mph SE1.8 kmh SE 2.0 mph3.2 kmh 29.84 in1010.5 mb 0.00 in0.0 mm 0.00 in0.0 mm 0.00 in0.0 mm
02:50 AM 87.3°F30.7°C 56.0°F13.3°C 35% 0.3 mph SE0.5 kmh SE 2.0 mph3.2 kmh 29.84 in1010.5 mb 0.00 in0.0 mm 0.00 in0.0 mm 0.00 in0.0 mm
03:00 AM 86.5°F30.3°C 57.0°F13.9°C 36% Calm Calm -- 29.84 in1010.5 mb 0.00 in0.0 mm 0.00 in0.0 mm 0.00 in0.0 mm
03:10 AM 85.6°F29.8°C 56.0°F13.3°C 37% 0.2 mph SE0.3 kmh SE 1.0 mph1.6 kmh 29.84 in1010.5 mb 0.00 in0.0 mm 0.00 in0.0 mm 0.00 in0.0 mm
03:20 AM 85.4°F29.7°C 56.0°F13.3°C 37% Calm Calm 1.0 mph1.6 kmh 29.84 in1010.5 mb 0.00 in0.0 mm 0.00 in0.0 mm 0.00 in0.0 mm
03:30 AM 85.1°F29.5°C 56.0°F13.3°C 37% 0.9 mph NNE1.4 kmh NNE 2.0 mph3.2 kmh 29.84 in1010.5 mb 0.00 in0.0 mm 0.00 in0.0 mm 0.00 in0.0 mm
03:40 AM 85.1°F29.5°C 55.0°F12.8°C 36% 0.6 mph N1.0 kmh N 2.0 mph3.2 kmh 29.84 in1010.5 mb 0.00 in0.0 mm 0.00 in0.0 mm 0.00 in0.0 mm
03:50 AM 85.0°F29.4°C 56.0°F13.3°C 37% 1.6 mph NNE2.6 kmh NNE 4.0 mph6.4 kmh 29.84 in1010.5 mb 0.00 in0.0 mm 0.00 in0.0 mm 0.00 in0.0 mm
04:00 AM 84.9°F29.4°C 56.0°F13.3°C 37% 2.4 mph NE3.9 kmh NE 4.0 mph6.4 kmh 29.84 in1010.5 mb 0.00 in0.0 mm 0.00 in0.0 mm 0.00 in0.0 mm
04:10 AM 84.6°F29.2°C 56.0°F13.3°C 38% 2.1 mph N3.4 kmh N 4.0 mph6.4 kmh 29.84 in1010.5 mb 0.00 in0.0 mm 0.00 in0.0 mm 0.00 in0.0 mm
04:20 AM 84.4°F29.1°C 56.0°F13.3°C 38% 2.1 mph NNE3.4 kmh NNE 5.0 mph8.0 kmh 29.84 in1010.5 mb 0.00 in0.0 mm 0.00 in0.0 mm 0.00 in0.0 mm
04:30 AM 84.3°F29.1°C 56.0°F13.3°C 38% 1.8 mph N2.9 kmh N 5.0 mph8.0 kmh 29.84 in1010.5 mb 0.00 in0.0 mm 0.00 in0.0 mm 0.00 in0.0 mm
04:40 AM 84.2°F29.0°C 56.0°F13.3°C 38% 1.8 mph N2.9 kmh N 4.0 mph6.4 kmh 29.84 in1010.5 mb 0.00 in0.0 mm 0.00 in0.0 mm 0.00 in0.0 mm
04:50 AM 84.0°F28.9°C 56.0°F13.3°C 38% 2.1 mph N3.4 kmh N 4.0 mph6.4 kmh 29.84 in1010.5 mb 0.00 in0.0 mm 0.00 in0.0 mm 0.00 in0.0 mm
05:00 AM 84.2°F29.0°C 55.0°F12.8°C 37% 2.0 mph NNE3.2 kmh NNE 4.0 mph6.4 kmh 29.84 in1010.5 mb 0.00 in0.0 mm 0.00 in0.0 mm 0.00 in0.0 mm
05:10 AM 84.1°F28.9°C 55.0°F12.8°C 37% 2.6 mph NE4.2 kmh NE 5.0 mph8.0 kmh 29.84 in1010.5 mb 0.00 in0.0 mm 0.00 in0.0 mm 0.00 in0.0 mm
05:20 AM 83.6°F28.7°C 55.0°F12.8°C 37% 2.6 mph N4.2 kmh N 5.0 mph8.0 kmh 29.84 in1010.5 mb 0.00 in0.0 mm 0.00 in0.0 mm 0.00 in0.0 mm
05:30 AM 83.3°F28.5°C 56.0°F13.3°C 39% 3.6 mph NNE5.8 kmh NNE 9.0 mph14.5 kmh 29.84 in1010.5 mb 0.00 in0.0 mm 0.00 in0.0 mm 0.00 in0.0 mm
05:40 AM 83.0°F28.3°C 56.0°F13.3°C 39% 3.0 mph NNW4.8 kmh NNW 6.0 mph9.7 kmh 29.84 in1010.5 mb 0.00 in0.0 mm 0.00 in0.0 mm 0.00 in0.0 mm
05:50 AM 83.2°F28.4°C 55.0°F12.8°C 38% 4.6 mph N7.4 kmh N 7.0 mph11.3 kmh 29.84 in1010.5 mb 0.00 in0.0 mm 0.00 in0.0 mm 0.00 in0.0 mm
06:00 AM 84.0°F28.9°C 55.0°F12.8°C 37% 5.1 mph NNE8.2 kmh NNE 9.0 mph14.5 kmh 29.84 in1010.5 mb 0.00 in0.0 mm 0.00 in0.0 mm 0.00 in0.0 mm
06:10 AM 84.3°F29.1°C 55.0°F12.8°C 36% 2.9 mph NNW4.7 kmh NNW 7.0 mph11.3 kmh 29.84 in1010.5 mb 0.00 in0.0 mm 0.00 in0.0 mm 0.00 in0.0 mm
06:20 AM 84.6°F29.2°C 55.0°F12.8°C 36% 4.3 mph NE6.9 kmh NE 8.0 mph12.9 kmh 29.84 in1010.5 mb 0.00 in0.0 mm 0.00 in0.0 mm 0.00 in0.0 mm
06:30 AM 84.7°F29.3°C 55.0°F12.8°C 36% 3.1 mph NE5.0 kmh NE 8.0 mph12.9 kmh 29.84 in1010.5 mb 0.00 in0.0 mm 0.00 in0.0 mm 0.00 in0.0 mm
06:40 AM 85.5°F29.7°C 55.0°F12.8°C 35% 4.7 mph N7.6 kmh N 8.0 mph12.9 kmh 29.84 in1010.5 mb 0.00 in0.0 mm 0.00 in0.0 mm 0.00 in0.0 mm
06:50 AM 86.6°F30.3°C 55.0°F12.8°C 34% 3.3 mph N5.3 kmh N 8.0 mph12.9 kmh 29.84 in1010.5 mb 0.00 in0.0 mm 0.00 in0.0 mm 0.00 in0.0 mm
07:00 AM 87.4°F30.8°C 55.0°F12.8°C 33% 2.8 mph NNE4.5 kmh NNE 6.0 mph9.7 kmh 29.84 in1010.5 mb 0.00 in0.0 mm 0.00 in0.0 mm 0.00 in0.0 mm
07:10 AM 87.9°F31.1°C 55.0°F12.8°C 33% 2.1 mph NNE3.4 kmh NNE 4.0 mph6.4 kmh 29.84 in1010.5 mb 0.00 in0.0 mm 0.00 in0.0 mm 0.00 in0.0 mm
07:20 AM 89.9°F32.2°C 56.0°F13.3°C 32% 1.1 mph N1.8 kmh N 2.0 mph3.2 kmh 29.84 in1010.5 mb 0.00 in0.0 mm 0.00 in0.0 mm 0.00 in0.0 mm
07:30 AM 90.4°F32.4°C 56.0°F13.3°C 31% 1.6 mph NNE2.6 kmh NNE 6.0 mph9.7 kmh 29.84 in1010.5 mb 0.00 in0.0 mm 0.00 in0.0 mm 0.00 in0.0 mm
07:40 AM 91.1°F32.8°C 56.0°F13.3°C 30% 1.8 mph NNE2.9 kmh NNE 4.0 mph6.4 kmh 29.84 in1010.5 mb 0.00 in0.0 mm 0.00 in0.0 mm 0.00 in0.0 mm
07:50 AM 93.5°F34.2°C 57.0°F13.9°C 29% 0.3 mph N0.5 kmh N 1.0 mph1.6 kmh 29.84 in1010.5 mb 0.00 in0.0 mm 0.00 in0.0 mm 0.00 in0.0 mm
08:00 AM 96.0°F35.6°C 58.0°F14.4°C 28% Calm Calm 1.0 mph1.6 kmh 29.84 in1010.5 mb 0.00 in0.0 mm 0.00 in0.0 mm 0.00 in0.0 mm
08:10 AM 96.5°F35.8°C 57.0°F13.9°C 27% 0.9 mph SW1.4 kmh SW 3.0 mph4.8 kmh 29.84 in1010.5 mb 0.00 in0.0 mm 0.00 in0.0 mm 0.00 in0.0 mm
08:20 AM 96.8°F36.0°C 60.0°F15.6°C 29% 0.8 mph SSE1.3 kmh SSE 3.0 mph4.8 kmh 29.84 in1010.5 mb 0.00 in0.0 mm 0.00 in0.0 mm 0.00 in0.0 mm
08:30 AM 96.9°F36.1°C 59.0°F15.0°C 28% 1.0 mph SW1.6 kmh SW 3.0 mph4.8 kmh 29.84 in1010.5 mb 0.00 in0.0 mm 0.00 in0.0 mm 0.00 in0.0 mm
08:40 AM 96.7°F35.9°C 59.0°F15.0°C 28% 1.2 mph SE1.9 kmh SE 6.0 mph9.7 kmh 29.84 in1010.5 mb 0.00 in0.0 mm 0.00 in0.0 mm 0.00 in0.0 mm
08:50 AM 98.4°F36.9°C 59.0°F15.0°C 27% 0.5 mph SW0.8 kmh SW 2.0 mph3.2 kmh 29.84 in1010.5 mb 0.00 in0.0 mm 0.00 in0.0 mm 0.00 in0.0 mm
09:00 AM 98.5°F36.9°C 58.0°F14.4°C 26% 1.7 mph SW2.7 kmh SW 6.0 mph9.7 kmh 29.84 in1010.5 mb 0.00 in0.0 mm 0.00 in0.0 mm 0.00 in0.0 mm
09:10 AM 98.2°F36.8°C 59.0°F15.0°C 27% 1.6 mph SW2.6 kmh SW 4.0 mph6.4 kmh 29.84 in1010.5 mb 0.00 in0.0 mm 0.00 in0.0 mm 0.00 in0.0 mm
09:20 AM 99.4°F37.4°C 58.0°F14.4°C 25% 0.9 mph SE1.4 kmh SE 3.0 mph4.8 kmh 29.84 in1010.5 mb 0.00 in0.0 mm 0.00 in0.0 mm 0.00 in0.0 mm
09:30 AM 100.1°F37.8°C 58.0°F14.4°C 25% 0.6 mph SSE1.0 kmh SSE 3.0 mph4.8 kmh 29.84 in1010.5 mb 0.00 in0.0 mm 0.00 in0.0 mm 0.00 in0.0 mm
09:40 AM 99.5°F37.5°C 58.0°F14.4°C 25% 1.0 mph S1.6 kmh S 5.0 mph8.0 kmh 29.84 in1010.5 mb 0.00 in0.0 mm 0.00 in0.0 mm 0.00 in0.0 mm
09:50 AM 100.8°F38.2°C 59.0°F15.0°C 25% 0.6 mph SW1.0 kmh SW 3.0 mph4.8 kmh 29.84 in1010.5 mb 0.00 in0.0 mm 0.00 in0.0 mm 0.00 in0.0 mm
10:00 AM 100.5°F38.1°C 60.0°F15.6°C 26% 1.3 mph N2.1 kmh N 4.0 mph6.4 kmh 29.84 in1010.5 mb 0.00 in0.0 mm 0.00 in0.0 mm 0.00 in0.0 mm
10:10 AM 102.2°F39.0°C 58.0°F14.4°C 23% 0.6 mph S1.0 kmh S 2.0 mph3.2 kmh 29.84 in1010.5 mb 0.00 in0.0 mm 0.00 in0.0 mm 0.00 in0.0 mm
10:20 AM 102.9°F39.4°C 59.0°F15.0°C 23% 0.6 mph SSE1.0 kmh SSE 6.0 mph9.7 kmh 29.84 in1010.5 mb 0.00 in0.0 mm 0.00 in0.0 mm 0.00 in0.0 mm
10:30 AM 101.8°F38.8°C 58.0°F14.4°C 23% 2.4 mph SE3.9 kmh SE 6.0 mph9.7 kmh 29.84 in1010.5 mb 0.00 in0.0 mm 0.00 in0.0 mm 0.00 in0.0 mm
10:40 AM 102.7°F39.3°C 57.0°F13.9°C 22% 1.6 mph WSW2.6 kmh WSW 4.0 mph6.4 kmh 29.84 in1010.5 mb 0.00 in0.0 mm 0.00 in0.0 mm 0.00 in0.0 mm
10:50 AM 103.8°F39.9°C 58.0°F14.4°C 22% 1.2 mph SW1.9 kmh SW 4.0 mph6.4 kmh 29.84 in1010.5 mb 0.00 in0.0 mm 0.00 in0.0 mm 0.00 in0.0 mm
11:00 AM 104.9°F40.5°C 56.0°F13.3°C 20% 1.4 mph SSW2.3 kmh SSW 6.0 mph9.7 kmh 29.84 in1010.5 mb 0.00 in0.0 mm 0.00 in0.0 mm 0.00 in0.0 mm
11:10 AM 104.7°F40.4°C 56.0°F13.3°C 20% 1.6 mph SSW2.6 kmh SSW 6.0 mph9.7 kmh 29.84 in1010.5 mb 0.00 in0.0 mm 0.00 in0.0 mm 0.00 in0.0 mm
11:20 AM 103.8°F39.9°C 57.0°F13.9°C 21% 2.6 mph SSE4.2 kmh SSE 9.0 mph14.5 kmh 29.84 in1010.5 mb 0.00 in0.0 mm 0.00 in0.0 mm 0.00 in0.0 mm
11:30 AM 104.1°F40.1°C 57.0°F13.9°C 21% 1.1 mph NNE1.8 kmh NNE 9.0 mph14.5 kmh 29.84 in1010.5 mb 0.00 in0.0 mm 0.00 in0.0 mm 0.00 in0.0 mm
11:40 AM 104.5°F40.3°C 56.0°F13.3°C 20% 2.0 mph SW3.2 kmh SW 6.0 mph9.7 kmh 29.84 in1010.5 mb 0.00 in0.0 mm 0.00 in0.0 mm 0.00 in0.0 mm
11:50 AM 105.1°F40.6°C 55.0°F12.8°C 19% 3.0 mph S4.8 kmh S 7.0 mph11.3 kmh 29.84 in1010.5 mb 0.00 in0.0 mm 0.00 in0.0 mm 0.00 in0.0 mm
12:00 PM 105.7°F40.9°C 56.0°F13.3°C 19% 1.8 mph S2.9 kmh S 7.0 mph11.3 kmh 29.84 in1010.5 mb 0.00 in0.0 mm 0.00 in0.0 mm 0.00 in0.0 mm
12:10 PM 105.9°F41.1°C 56.0°F13.3°C 19% 2.3 mph SW3.7 kmh SW 7.0 mph11.3 kmh 29.84 in1010.5 mb 0.00 in0.0 mm 0.00 in0.0 mm 0.00 in0.0 mm
12:20 PM 106.2°F41.2°C 55.0°F12.8°C 18% 1.7 mph S2.7 kmh S 6.0 mph9.7 kmh 29.84 in1010.5 mb 0.00 in0.0 mm 0.00 in0.0 mm 0.00 in0.0 mm
12:30 PM 107.0°F41.7°C 54.0°F12.2°C 17% 0.7 mph ESE1.1 kmh ESE 8.0 mph12.9 kmh 29.84 in1010.5 mb 0.00 in0.0 mm 0.00 in0.0 mm 0.00 in0.0 mm
12:40 PM 107.5°F41.9°C 54.0°F12.2°C 17% 1.7 mph S2.7 kmh S 6.0 mph9.7 kmh 29.84 in1010.5 mb 0.00 in0.0 mm 0.00 in0.0 mm 0.00 in0.0 mm
12:50 PM 107.1°F41.7°C 54.0°F12.2°C 17% 2.1 mph SW3.4 kmh SW 9.0 mph14.5 kmh 29.84 in1010.5 mb 0.00 in0.0 mm 0.00 in0.0 mm 0.00 in0.0 mm
01:00 PM 107.9°F42.2°C 54.0°F12.2°C 17% 1.6 mph SSE2.6 kmh SSE 7.0 mph11.3 kmh 29.84 in1010.5 mb 0.00 in0.0 mm 0.00 in0.0 mm 0.00 in0.0 mm
01:10 PM 106.8°F41.6°C 54.0°F12.2°C 17% 2.4 mph SSW3.9 kmh SSW 9.0 mph14.5 kmh 29.84 in1010.5 mb 0.00 in0.0 mm 0.00 in0.0 mm 0.00 in0.0 mm
01:20 PM 107.8°F42.1°C 54.0°F12.2°C 17% 1.2 mph S1.9 kmh S 8.0 mph12.9 kmh 29.84 in1010.5 mb 0.00 in0.0 mm 0.00 in0.0 mm 0.00 in0.0 mm
01:30 PM 107.4°F41.9°C 54.0°F12.2°C 17% 2.1 mph ESE3.4 kmh ESE 11.0 mph17.7 kmh 29.84 in1010.5 mb 0.00 in0.0 mm 0.00 in0.0 mm 0.00 in0.0 mm
01:40 PM 108.6°F42.6°C 55.0°F12.8°C 17% 0.6 mph SSW1.0 kmh SSW 8.0 mph12.9 kmh 29.84 in1010.5 mb 0.00 in0.0 mm 0.00 in0.0 mm 0.00 in0.0 mm
01:50 PM 108.6°F42.6°C 53.0°F11.7°C 16% 3.5 mph S5.6 kmh S 9.0 mph14.5 kmh 29.84 in1010.5 mb 0.00 in0.0 mm 0.00 in0.0 mm 0.00 in0.0 mm
02:00 PM 109.3°F42.9°C 54.0°F12.2°C 16% 2.6 mph SW4.2 kmh SW 10.0 mph16.1 kmh 29.84 in1010.5 mb 0.00 in0.0 mm 0.00 in0.0 mm 0.00 in0.0 mm
02:10 PM 108.8°F42.7°C 54.0°F12.2°C 16% 2.8 mph SE4.5 kmh SE 12.0 mph19.3 kmh 29.84 in1010.5 mb 0.00 in0.0 mm 0.00 in0.0 mm 0.00 in0.0 mm
02:20 PM 108.4°F42.4°C 53.0°F11.7°C 16% 2.2 mph NW3.5 kmh NW 11.0 mph17.7 kmh 29.84 in1010.5 mb 0.00 in0.0 mm 0.00 in0.0 mm 0.00 in0.0 mm
02:30 PM 109.6°F43.1°C 52.0°F11.1°C 15% 1.0 mph NW1.6 kmh NW 5.0 mph8.0 kmh 29.84 in1010.5 mb 0.00 in0.0 mm 0.00 in0.0 mm 0.00 in0.0 mm
02:40 PM 109.9°F43.3°C 51.0°F10.6°C 14% 1.6 mph NNE2.6 kmh NNE 4.0 mph6.4 kmh 29.84 in1010.5 mb 0.00 in0.0 mm 0.00 in0.0 mm 0.00 in0.0 mm
02:50 PM 108.8°F42.7°C 52.0°F11.1°C 15% 5.7 mph S9.2 kmh S 10.0 mph16.1 kmh 29.84 in1010.5 mb 0.00 in0.0 mm 0.00 in0.0 mm 0.00 in0.0 mm
03:00 PM 109.0°F42.8°C 50.0°F10.0°C 14% 1.7 mph NW2.7 kmh NW 11.0 mph17.7 kmh 29.84 in1010.5 mb 0.00 in0.0 mm 0.00 in0.0 mm 0.00 in0.0 mm
03:10 PM 108.2°F42.3°C 51.0°F10.6°C 15% 1.5 mph SW2.4 kmh SW 6.0 mph9.7 kmh 29.84 in1010.5 mb 0.00 in0.0 mm 0.00 in0.0 mm 0.00 in0.0 mm
03:20 PM 109.6°F43.1°C 51.0°F10.6°C 14% 2.3 mph SSE3.7 kmh SSE 6.0 mph9.7 kmh 29.84 in1010.5 mb 0.00 in0.0 mm 0.00 in0.0 mm 0.00 in0.0 mm
03:30 PM 109.7°F43.2°C 51.0°F10.6°C 14% 2.1 mph SSW3.4 kmh SSW 8.0 mph12.9 kmh 29.84 in1010.5 mb 0.00 in0.0 mm 0.00 in0.0 mm 0.00 in0.0 mm
03:40 PM 109.8°F43.2°C 51.0°F10.6°C 14% 2.0 mph SSW3.2 kmh SSW 6.0 mph9.7 kmh 29.84 in1010.5 mb 0.00 in0.0 mm 0.00 in0.0 mm 0.00 in0.0 mm
03:50 PM 109.7°F43.2°C 51.0°F10.6°C 14% 2.8 mph SE4.5 kmh SE 7.0 mph11.3 kmh 29.84 in1010.5 mb 0.00 in0.0 mm 0.00 in0.0 mm 0.00 in0.0 mm
04:00 PM 109.4°F43.0°C 50.0°F10.0°C 14% 3.6 mph SW5.8 kmh SW 10.0 mph16.1 kmh 29.84 in1010.5 mb 0.00 in0.0 mm 0.00 in0.0 mm 0.00 in0.0 mm
04:10 PM 108.3°F42.4°C 51.0°F10.6°C 15% 4.6 mph SW7.4 kmh SW 13.0 mph20.9 kmh 29.84 in1010.5 mb 0.00 in0.0 mm 0.00 in0.0 mm 0.00 in0.0 mm
04:20 PM 108.1°F42.3°C 51.0°F10.6°C 15% 1.9 mph NNE3.1 kmh NNE 6.0 mph9.7 kmh 29.84 in1010.5 mb 0.00 in0.0 mm 0.00 in0.0 mm 0.00 in0.0 mm
04:30 PM 108.2°F42.3°C 51.0°F10.6°C 15% 3.1 mph SW5.0 kmh SW 11.0 mph17.7 kmh 29.84 in1010.5 mb 0.00 in0.0 mm 0.00 in0.0 mm 0.00 in0.0 mm
04:40 PM 108.4°F42.4°C 52.0°F11.1°C 15% 2.7 mph S4.3 kmh S 11.0 mph17.7 kmh 29.84 in1010.5 mb 0.00 in0.0 mm 0.00 in0.0 mm 0.00 in0.0 mm
04:50 PM 108.1°F42.3°C 51.0°F10.6°C 15% 4.0 mph SSW6.4 kmh SSW 10.0 mph16.1 kmh 29.84 in1010.5 mb 0.00 in0.0 mm 0.00 in0.0 mm 0.00 in0.0 mm
05:00 PM 107.7°F42.1°C 51.0°F10.6°C 15% 2.8 mph SSW4.5 kmh SSW 10.0 mph16.1 kmh 29.84 in1010.5 mb 0.00 in0.0 mm 0.00 in0.0 mm 0.00 in0.0 mm
05:10 PM 107.5°F41.9°C 52.0°F11.1°C 16% 4.1 mph SE6.6 kmh SE 10.0 mph16.1 kmh 29.84 in1010.5 mb 0.00 in0.0 mm 0.00 in0.0 mm 0.00 in0.0 mm
05:20 PM 107.8°F42.1°C 51.0°F10.6°C 15% 3.8 mph SE6.1 kmh SE 11.0 mph17.7 kmh 29.84 in1010.5 mb 0.00 in0.0 mm 0.00 in0.0 mm 0.00 in0.0 mm
05:30 PM 107.9°F42.2°C 51.0°F10.6°C 15% 2.9 mph SW4.7 kmh SW 12.0 mph19.3 kmh 29.84 in1010.5 mb 0.00 in0.0 mm 0.00 in0.0 mm 0.00 in0.0 mm
05:40 PM 107.5°F41.9°C 51.0°F10.6°C 15% 2.4 mph SSW3.9 kmh SSW 9.0 mph14.5 kmh 29.84 in1010.5 mb 0.00 in0.0 mm 0.00 in0.0 mm 0.00 in0.0 mm
05:50 PM 107.0°F41.7°C 50.0°F10.0°C 15% 5.2 mph SW8.4 kmh SW 11.0 mph17.7 kmh 29.84 in1010.5 mb 0.00 in0.0 mm 0.00 in0.0 mm 0.00 in0.0 mm
06:00 PM 106.9°F41.6°C 50.0°F10.0°C 15% 3.4 mph SSE5.5 kmh SSE 10.0 mph16.1 kmh 29.84 in1010.5 mb 0.00 in0.0 mm 0.00 in0.0 mm 0.00 in0.0 mm
06:10 PM 107.0°F41.7°C 50.0°F10.0°C 15% 3.3 mph W5.3 kmh W 13.0 mph20.9 kmh 29.84 in1010.5 mb 0.00 in0.0 mm 0.00 in0.0 mm 0.00 in0.0 mm
06:20 PM 106.8°F41.6°C 52.0°F11.1°C 16% 3.3 mph N5.3 kmh N 9.0 mph14.5 kmh 29.84 in1010.5 mb 0.00 in0.0 mm 0.00 in0.0 mm 0.00 in0.0 mm
06:30 PM 106.6°F41.4°C 50.0°F10.0°C 15% 3.5 mph SW5.6 kmh SW 10.0 mph16.1 kmh 29.84 in1010.5 mb 0.00 in0.0 mm 0.00 in0.0 mm 0.00 in0.0 mm
06:40 PM 106.4°F41.3°C 52.0°F11.1°C 16% 3.7 mph SW6.0 kmh SW 11.0 mph17.7 kmh 29.84 in1010.5 mb 0.00 in0.0 mm 0.00 in0.0 mm 0.00 in0.0 mm
06:50 PM 106.0°F41.1°C 51.0°F10.6°C 16% 5.8 mph SSW9.3 kmh SSW 12.0 mph19.3 kmh 29.84 in1010.5 mb 0.00 in0.0 mm 0.00 in0.0 mm 0.00 in0.0 mm
07:00 PM 105.7°F40.9°C 51.0°F10.6°C 16% 3.5 mph SW5.6 kmh SW 8.0 mph12.9 kmh 29.84 in1010.5 mb 0.00 in0.0 mm 0.00 in0.0 mm 0.00 in0.0 mm
07:10 PM 105.4°F40.8°C 51.0°F10.6°C 16% 2.9 mph S4.7 kmh S 9.0 mph14.5 kmh 29.84 in1010.5 mb 0.00 in0.0 mm 0.00 in0.0 mm 0.00 in0.0 mm
07:20 PM 105.2°F40.7°C 51.0°F10.6°C 16% 3.4 mph SSW5.5 kmh SSW 8.0 mph12.9 kmh 29.84 in1010.5 mb 0.00 in0.0 mm 0.00 in0.0 mm 0.00 in0.0 mm
07:30 PM 104.8°F40.4°C 50.0°F10.0°C 16% 3.3 mph S5.3 kmh S 8.0 mph12.9 kmh 29.84 in1010.5 mb 0.00 in0.0 mm 0.00 in0.0 mm 0.00 in0.0 mm
07:40 PM 104.3°F40.2°C 50.0°F10.0°C 16% 3.3 mph SW5.3 kmh SW 8.0 mph12.9 kmh 29.84 in1010.5 mb 0.00 in0.0 mm 0.00 in0.0 mm 0.00 in0.0 mm
07:50 PM 103.9°F39.9°C 50.0°F10.0°C 16% 2.0 mph SW3.2 kmh SW 5.0 mph8.0 kmh 29.84 in1010.5 mb 0.00 in0.0 mm 0.00 in0.0 mm 0.00 in0.0 mm
08:00 PM 103.4°F39.7°C 51.0°F10.6°C 17% 3.1 mph SW5.0 kmh SW 8.0 mph12.9 kmh 29.84 in1010.5 mb 0.00 in0.0 mm 0.00 in0.0 mm 0.00 in0.0 mm
08:10 PM 103.0°F39.4°C 50.0°F10.0°C 17% 2.7 mph S4.3 kmh S 6.0 mph9.7 kmh 29.84 in1010.5 mb 0.00 in0.0 mm 0.00 in0.0 mm 0.00 in0.0 mm
08:20 PM 102.7°F39.3°C 50.0°F10.0°C 17% 2.1 mph SW3.4 kmh SW 7.0 mph11.3 kmh 29.84 in1010.5 mb 0.00 in0.0 mm 0.00 in0.0 mm 0.00 in0.0 mm
08:30 PM 102.1°F38.9°C 50.0°F10.0°C 17% 1.6 mph SW2.6 kmh SW 6.0 mph9.7 kmh 29.84 in1010.5 mb 0.00 in0.0 mm 0.00 in0.0 mm 0.00 in0.0 mm
08:40 PM 101.7°F38.7°C 51.0°F10.6°C 18% 1.4 mph SW2.3 kmh SW 5.0 mph8.0 kmh 29.84 in1010.5 mb 0.00 in0.0 mm 0.00 in0.0 mm 0.00 in0.0 mm
08:50 PM 101.5°F38.6°C 51.0°F10.6°C 18% 1.7 mph SSW2.7 kmh SSW 5.0 mph8.0 kmh 29.84 in1010.5 mb 0.00 in0.0 mm 0.00 in0.0 mm 0.00 in0.0 mm
09:00 PM 101.1°F38.4°C 50.0°F10.0°C 18% 1.3 mph SW2.1 kmh SW 4.0 mph6.4 kmh 29.84 in1010.5 mb 0.00 in0.0 mm 0.00 in0.0 mm 0.00 in0.0 mm
09:10 PM 100.8°F38.2°C 50.0°F10.0°C 18% 1.8 mph SW2.9 kmh SW 4.0 mph6.4 kmh 29.84 in1010.5 mb 0.00 in0.0 mm 0.00 in0.0 mm 0.00 in0.0 mm
09:20 PM 100.2°F37.9°C 50.0°F10.0°C 18% 1.1 mph SW1.8 kmh SW 3.0 mph4.8 kmh 29.84 in1010.5 mb 0.00 in0.0 mm 0.00 in0.0 mm 0.00 in0.0 mm
09:30 PM 99.6°F37.6°C 51.0°F10.6°C 19% 0.6 mph SSW1.0 kmh SSW 2.0 mph3.2 kmh 29.84 in1010.5 mb 0.00 in0.0 mm 0.00 in0.0 mm 0.00 in0.0 mm
09:40 PM 98.7°F37.1°C 50.0°F10.0°C 19% Calm Calm -- 29.84 in1010.5 mb 0.00 in0.0 mm 0.00 in0.0 mm 0.00 in0.0 mm
09:50 PM 97.6°F36.4°C 52.0°F11.1°C 21% Calm Calm -- 29.84 in1010.5 mb 0.00 in0.0 mm 0.00 in0.0 mm 0.00 in0.0 mm
10:00 PM 96.2°F35.7°C 52.0°F11.1°C 22% Calm Calm -- 29.84 in1010.5 mb 0.00 in0.0 mm 0.00 in0.0 mm 0.00 in0.0 mm
10:10 PM 95.9°F35.5°C 50.0°F10.0°C 21% 0.4 mph ESE0.6 kmh ESE 2.0 mph3.2 kmh 29.84 in1010.5 mb 0.00 in0.0 mm 0.00 in0.0 mm 0.00 in0.0 mm
10:20 PM 96.2°F35.7°C 50.0°F10.0°C 21% 0.1 mph SSW0.2 kmh SSW 1.0 mph1.6 kmh 29.84 in1010.5 mb 0.00 in0.0 mm 0.00 in0.0 mm 0.00 in0.0 mm
10:30 PM 96.5°F35.8°C 51.0°F10.6°C 21% Calm Calm 1.0 mph1.6 kmh 29.84 in1010.5 mb 0.00 in0.0 mm 0.00 in0.0 mm 0.00 in0.0 mm
10:40 PM 96.3°F35.7°C 50.0°F10.0°C 21% Calm Calm 2.0 mph3.2 kmh 29.84 in1010.5 mb 0.00 in0.0 mm 0.00 in0.0 mm 0.00 in0.0 mm
10:50 PM 96.2°F35.7°C 50.0°F10.0°C 21% 0.3 mph SW0.5 kmh SW 3.0 mph4.8 kmh 29.84 in1010.5 mb 0.00 in0.0 mm 0.00 in0.0 mm 0.00 in0.0 mm
11:00 PM 96.6°F35.9°C 51.0°F10.6°C 21% 0.6 mph SW1.0 kmh SW 2.0 mph3.2 kmh 29.84 in1010.5 mb 0.00 in0.0 mm 0.00 in0.0 mm 0.00 in0.0 mm
11:10 PM 96.7°F35.9°C 51.0°F10.6°C 21% 0.8 mph SSW1.3 kmh SSW 3.0 mph4.8 kmh 29.84 in1010.5 mb 0.00 in0.0 mm 0.00 in0.0 mm 0.00 in0.0 mm
11:20 PM 96.8°F36.0°C 51.0°F10.6°C 21% 1.6 mph SSW2.6 kmh SSW 4.0 mph6.4 kmh 29.84 in1010.5 mb 0.00 in0.0 mm 0.00 in0.0 mm 0.00 in0.0 mm
11:30 PM 96.6°F35.9°C 51.0°F10.6°C 21% 0.8 mph SSE1.3 kmh SSE 4.0 mph6.4 kmh 29.84 in1010.5 mb 0.00 in0.0 mm 0.00 in0.0 mm 0.00 in0.0 mm
11:40 PM 96.1°F35.6°C 50.0°F10.0°C 21% 1.1 mph SSW1.8 kmh SSW 3.0 mph4.8 kmh 29.84 in1010.5 mb 0.00 in0.0 mm 0.00 in0.0 mm 0.00 in0.0 mm
11:50 PM 95.3°F35.2°C 51.0°F10.6°C 22% 0.1 mph WSW0.2 kmh WSW 1.0 mph1.6 kmh 29.84 in1010.5 mb 0.00 in0.0 mm 0.00 in0.0 mm 0.00 in0.0 mm